메인 페이지
METAR-TAF:

METAR-TAF

공항 :

바레인, 바레인

바레인 국제공항

위도: 26-16N, 경도: 050-39E, 고도: 2m

현재 날씨관측

예보는 20분 전, 19:00시(UTC)에 발표되었습니다.
남동11kt
온도 19°C
습도 78%
기압 1016 hPa
시정 10km 이상
1500m 미만 상공 구름 및 적란운 없음

METAR: OBBI 191900Z 13011KT CAVOK 19/15 Q1016 NOSIG

시각: 22:20 (19:20 UTC)

예보

예보는 2 시간 20분 전, 17:00시(UTC)에 발표되었습니다.
예보 대상 시간: 19일 18시부터 21일 00시까지 (UTC)
남동13kt
시정 10km 이상
1500m 미만 상공 구름 및 적란운 없음
전환 중
20일 04시부터 20일 06시까지 (UTC)
북서20kt, 순간 최대 풍속 30kt
시정: 4000m
고도 3000ft 상공 구름 보통
날린먼지
일시적
20일 04시부터 20일 17시까지 (UTC)
시정: 2000m
확률 30% :
일시적
20일 06시부터 20일 13시까지 (UTC)
시정: 0800m

TAF: OBBI 191700Z 1918/2100 14013KT CAVOK BECMG 2004/2006 32020G30KT 4000 BLDU SCT030 TEMPO 2004/2017 2000 PROB30 TEMPO 2006/2013 0800 DS

4,000개 이상의 공항 관측 자료 및 예보 (METAR 및 TAF 보고).

지도상에서 검색 가능한 기상관측소가 노란 점과 빨간 점으로 표시되어 있습니다.

기상관측소 명을 보려면 표시 위로 마우스를 이동하세요.

날씨 관측과 예보를 보려면 클릭하세요.

지도 변경 : 확대하려면 엑스 표시가 있는 녹색 버튼, 축소하려면 빼기 표시가 있는 녹색 버튼, 다음 페이지의 지도를 보려면 녹색 화살표를 클릭하세요.


METAR-TAF: